createdAt,value
2017-05-30T00:01:31.666Z,37.12
2017-05-30T00:04:00.176Z,36.93
2017-05-30T00:06:28.679Z,41.52
2017-05-30T00:08:57.225Z,42.55
2017-05-30T00:11:25.747Z,39.37
2017-05-30T00:13:54.305Z,39.35
2017-05-30T00:16:22.821Z,40.35
2017-05-30T00:18:51.331Z,40.33
2017-05-30T00:21:19.869Z,39.20
2017-05-30T00:23:48.378Z,37.37
2017-05-30T00:26:16.924Z,36.70
2017-05-30T00:28:45.437Z,39.82
2017-05-30T00:31:13.943Z,39.32
2017-05-30T00:33:42.479Z,35.88
2017-05-30T00:36:10.991Z,34.50
2017-05-30T00:38:39.549Z,36.23
2017-05-30T00:41:08.065Z,36.92
2017-05-30T00:43:36.582Z,42.82
2017-05-30T00:46:05.117Z,38.68
2017-05-30T00:48:33.641Z,40.07
2017-05-30T00:51:02.199Z,39.78
2017-05-30T00:53:30.709Z,38.60
2017-05-30T00:55:59.226Z,37.73
2017-05-30T00:58:27.768Z,38.12
2017-05-30T01:00:56.278Z,37.83
2017-05-30T01:03:24.829Z,36.37
2017-05-30T01:05:53.336Z,37.28
2017-05-30T01:08:21.845Z,33.28
2017-05-30T01:10:50.384Z,36.17
2017-05-30T01:13:18.897Z,36.00
2017-05-30T01:15:47.447Z,38.33
2017-05-30T01:18:15.957Z,40.30
2017-05-30T01:20:44.479Z,40.53
2017-05-30T01:23:13.020Z,41.82
2017-05-30T01:25:41.533Z,43.00
2017-05-30T01:28:10.092Z,40.18
2017-05-30T01:30:38.600Z,42.78
2017-05-30T01:33:07.153Z,45.22
2017-05-30T01:35:35.696Z,43.55
2017-05-30T01:38:04.199Z,41.13
2017-05-30T01:40:32.757Z,41.28
2017-05-30T01:43:01.268Z,42.23
2017-05-30T01:45:29.803Z,39.33
2017-05-30T01:47:58.355Z,38.83
2017-05-30T01:50:26.873Z,37.75
2017-05-30T01:52:55.429Z,39.05
2017-05-30T01:55:23.942Z,39.53
2017-05-30T01:57:52.448Z,35.95
2017-05-30T02:00:20.991Z,41.27
2017-05-30T02:02:49.505Z,38.43
2017-05-30T02:05:18.082Z,37.72
2017-05-30T02:07:46.604Z,37.37
2017-05-30T02:10:15.116Z,38.08
2017-05-30T02:12:43.661Z,34.58
2017-05-30T02:15:12.168Z,37.20
2017-05-30T02:17:40.718Z,34.75
2017-05-30T02:20:09.232Z,34.52
2017-05-30T02:22:37.749Z,38.30
2017-05-30T02:25:06.292Z,38.90
2017-05-30T02:27:34.804Z,36.63
2017-05-30T02:30:03.358Z,35.77
2017-05-30T02:32:31.873Z,35.35
2017-05-30T02:35:00.386Z,37.48
2017-05-30T02:37:28.931Z,35.15
2017-05-30T02:39:57.444Z,36.07
2017-05-30T02:42:25.997Z,36.28
2017-05-30T02:44:54.511Z,33.60
2017-05-30T02:47:23.026Z,34.83
2017-05-30T02:49:51.569Z,36.22
2017-05-30T02:52:20.082Z,35.78
2017-05-30T02:54:48.633Z,35.18
2017-05-30T02:57:17.145Z,32.17
2017-05-30T02:59:45.689Z,31.87
2017-05-30T03:02:14.239Z,37.03
2017-05-30T03:04:42.752Z,35.88
2017-05-30T03:07:11.300Z,33.72
2017-05-30T03:09:39.817Z,33.67
2017-05-30T03:12:08.328Z,35.82
2017-05-30T03:14:36.867Z,31.87
2017-05-30T03:17:05.381Z,30.53
2017-05-30T03:19:33.945Z,28.90
2017-05-30T03:22:02.463Z,31.25
2017-05-30T03:24:30.974Z,25.60
2017-05-30T03:26:59.511Z,28.18
2017-05-30T03:29:28.026Z,24.53
2017-05-30T03:31:56.581Z,21.63
2017-05-30T03:34:25.103Z,19.92
2017-05-30T03:36:53.615Z,18.22
2017-05-30T03:39:22.155Z,17.53
2017-05-30T03:41:50.665Z,17.05
2017-05-30T03:44:19.220Z,16.72
2017-05-30T03:46:47.729Z,14.40
2017-05-30T03:49:16.253Z,16.05
2017-05-30T03:51:44.790Z,14.78
2017-05-30T03:54:13.297Z,15.27
2017-05-30T03:56:41.850Z,13.37
2017-05-30T03:59:10.364Z,15.48
2017-05-30T04:01:38.876Z,13.80
2017-05-30T04:04:07.424Z,13.18
2017-05-30T04:06:35.936Z,12.50
2017-05-30T04:09:04.499Z,12.98
2017-05-30T04:11:33.004Z,13.20
2017-05-30T04:14:01.516Z,14.67
2017-05-30T04:16:30.061Z,16.08
2017-05-30T04:18:58.573Z,13.25
2017-05-30T04:21:27.133Z,14.20
2017-05-30T04:23:55.651Z,13.57
2017-05-30T04:26:24.169Z,13.23
2017-05-30T04:28:52.723Z,14.35
2017-05-30T04:31:21.250Z,13.60
2017-05-30T04:33:49.807Z,13.90
2017-05-30T04:36:18.330Z,14.02
2017-05-30T04:38:46.845Z,12.48
2017-05-30T04:41:15.397Z,14.25
2017-05-30T04:43:43.905Z,13.88
2017-05-30T04:46:12.470Z,13.92
2017-05-30T04:48:40.990Z,13.05
2017-05-30T04:51:09.505Z,12.40
2017-05-30T04:53:38.064Z,14.22
2017-05-30T04:56:06.581Z,14.74
2017-05-30T04:58:35.138Z,13.94
2017-05-30T05:01:03.653Z,15.78
2017-05-30T05:03:32.166Z,14.66
2017-05-30T05:06:00.724Z,12.48
2017-05-30T05:08:29.240Z,10.80
2017-05-30T05:10:57.817Z,12.76
2017-05-30T05:13:26.323Z,11.16
2017-05-30T05:15:54.827Z,13.32
2017-05-30T05:18:23.363Z,11.98
2017-05-30T05:20:51.871Z,13.00
2017-05-30T05:23:20.425Z,12.62
2017-05-30T05:25:48.941Z,12.00
2017-05-30T05:28:17.448Z,11.28
2017-05-30T05:30:45.996Z,12.42
2017-05-30T05:33:14.512Z,14.52
2017-05-30T05:35:43.068Z,11.94
2017-05-30T05:38:11.583Z,11.62
2017-05-30T05:40:40.096Z,9.80
2017-05-30T05:43:08.654Z,9.78
2017-05-30T05:45:37.168Z,12.06
2017-05-30T05:48:05.719Z,12.18
2017-05-30T05:50:34.229Z,11.40
2017-05-30T05:53:02.748Z,12.18
2017-05-30T05:55:31.293Z,10.52
2017-05-30T05:57:59.797Z,9.34
2017-05-30T06:00:28.348Z,14.26
2017-05-30T06:02:56.861Z,12.86
2017-05-30T06:05:25.367Z,14.46
2017-05-30T06:07:53.921Z,10.58
2017-05-30T06:10:22.437Z,11.38
2017-05-30T06:12:50.985Z,10.76
2017-05-30T06:15:19.488Z,11.08
2017-05-30T06:17:47.997Z,11.62
2017-05-30T06:20:16.540Z,11.16
2017-05-30T06:22:45.054Z,9.72
2017-05-30T06:25:13.605Z,11.78
2017-05-30T06:27:42.118Z,11.44
2017-05-30T06:30:10.627Z,9.18
2017-05-30T06:32:39.173Z,10.64
2017-05-30T06:35:07.679Z,12.74
2017-05-30T06:37:36.232Z,12.92
2017-05-30T06:40:04.744Z,13.40
2017-05-30T06:42:33.256Z,10.40
2017-05-30T06:45:01.809Z,15.94
2017-05-30T06:47:30.311Z,10.22
2017-05-30T06:49:58.859Z,9.54
2017-05-30T06:52:27.408Z,10.76
2017-05-30T06:54:55.925Z,8.40
2017-05-30T06:57:24.461Z,9.80
2017-05-30T06:59:52.970Z,9.24
2017-05-30T07:02:21.516Z,9.30
2017-05-30T07:04:50.020Z,8.60
2017-05-30T07:07:18.529Z,6.70
2017-05-30T07:09:47.078Z,7.82
2017-05-30T07:12:15.585Z,7.32
2017-05-30T07:14:44.135Z,7.64
2017-05-30T07:17:12.636Z,7.44
2017-05-30T07:19:41.176Z,8.10
2017-05-30T07:22:09.717Z,6.70
2017-05-30T07:24:38.225Z,6.06
2017-05-30T07:27:06.769Z,7.40
2017-05-30T07:29:35.276Z,6.96
2017-05-30T07:32:03.786Z,6.54
2017-05-30T07:34:32.326Z,7.60
2017-05-30T07:37:00.832Z,6.20
2017-05-30T07:39:29.763Z,8.16
2017-05-30T07:41:58.265Z,7.10
2017-05-30T07:44:26.768Z,7.32
2017-05-30T07:46:55.301Z,6.52
2017-05-30T07:49:23.799Z,7.04
2017-05-30T07:51:52.351Z,7.78
2017-05-30T07:54:20.861Z,6.40
2017-05-30T07:56:49.387Z,6.78
2017-05-30T07:59:17.936Z,6.10
2017-05-30T08:01:46.441Z,6.20
2017-05-30T08:04:14.990Z,5.96
2017-05-30T08:06:43.493Z,5.54
2017-05-30T08:09:11.987Z,6.46
2017-05-30T08:11:40.520Z,5.92
2017-05-30T08:14:09.026Z,6.96
2017-05-30T08:16:37.569Z,6.02
2017-05-30T08:19:06.072Z,6.40
2017-05-30T08:21:34.585Z,6.40
2017-05-30T08:24:03.122Z,7.70
2017-05-30T08:26:31.628Z,7.46
2017-05-30T08:29:00.974Z,6.28
2017-05-30T08:31:29.486Z,5.46
2017-05-30T08:33:58.005Z,5.04
2017-05-30T08:36:26.547Z,4.90
2017-05-30T08:38:55.051Z,5.84
2017-05-30T08:41:23.766Z,6.68
2017-05-30T08:43:52.272Z,6.92
2017-05-30T08:46:20.773Z,6.36
2017-05-30T08:48:49.318Z,6.36
2017-05-30T08:51:17.823Z,7.72
2017-05-30T08:53:46.370Z,7.02
2017-05-30T08:56:14.877Z,7.46
2017-05-30T08:58:43.394Z,6.90
2017-05-30T09:01:11.933Z,7.46
2017-05-30T09:03:40.441Z,7.38
2017-05-30T09:06:09.797Z,6.00
2017-05-30T09:08:38.305Z,7.22
2017-05-30T09:11:06.818Z,8.64
2017-05-30T09:13:35.352Z,8.08
2017-05-30T09:16:03.851Z,7.10
2017-05-30T09:18:32.407Z,6.74
2017-05-30T09:21:00.913Z,7.28
2017-05-30T09:23:29.412Z,7.30
2017-05-30T09:25:57.957Z,8.12
2017-05-30T09:28:26.469Z,7.36
2017-05-30T09:30:55.017Z,7.10
2017-05-30T09:33:23.521Z,7.76
2017-05-30T09:35:52.025Z,8.38
2017-05-30T09:38:20.565Z,15.20
2017-05-30T09:40:49.061Z,8.06
2017-05-30T09:43:17.600Z,9.02
2017-05-30T09:45:46.099Z,8.58
2017-05-30T09:48:14.604Z,8.14
2017-05-30T09:50:43.145Z,9.46
2017-05-30T09:53:11.647Z,8.00
2017-05-30T09:55:40.209Z,8.02
2017-05-30T09:58:08.711Z,6.68
2017-05-30T10:00:37.222Z,7.56
2017-05-30T10:03:05.763Z,7.42
2017-05-30T10:05:34.272Z,8.84
2017-05-30T10:08:02.820Z,7.92
2017-05-30T10:10:31.327Z,7.70
2017-05-30T10:12:59.833Z,8.50
2017-05-30T10:15:28.377Z,7.66
2017-05-30T10:17:57.032Z,8.66
2017-05-30T10:20:25.579Z,8.68
2017-05-30T10:22:54.090Z,7.70
2017-05-30T10:25:22.601Z,7.62
2017-05-30T10:27:51.145Z,9.40
2017-05-30T10:30:19.657Z,7.54
2017-05-30T10:32:48.205Z,8.78
2017-05-30T10:35:16.717Z,7.06
2017-05-30T10:37:45.232Z,6.14
2017-05-30T10:40:13.766Z,7.92
2017-05-30T10:42:42.293Z,8.10
2017-05-30T10:45:10.856Z,7.94
2017-05-30T10:47:39.368Z,7.74
2017-05-30T10:50:07.881Z,7.32
2017-05-30T10:52:36.416Z,6.82
2017-05-30T10:55:04.921Z,7.86
2017-05-30T10:57:33.469Z,7.42
2017-05-30T11:00:01.999Z,7.90
2017-05-30T11:02:30.507Z,6.68
2017-05-30T11:04:59.052Z,8.12
2017-05-30T11:07:27.562Z,7.04
2017-05-30T11:09:56.109Z,7.78
2017-05-30T11:12:24.667Z,7.74
2017-05-30T11:14:53.183Z,6.32
2017-05-30T11:17:21.716Z,6.94
2017-05-30T11:19:50.225Z,7.08
2017-05-30T11:22:18.776Z,7.48
2017-05-30T11:24:47.283Z,7.24
2017-05-30T11:27:15.790Z,7.28
2017-05-30T11:29:44.324Z,6.18
2017-05-30T11:32:12.869Z,6.70
2017-05-30T11:34:41.414Z,7.34
2017-05-30T11:37:09.920Z,7.12
2017-05-30T11:39:38.439Z,7.58
2017-05-30T11:42:06.977Z,6.18
2017-05-30T11:44:35.493Z,7.54
2017-05-30T11:47:04.044Z,7.84
2017-05-30T11:49:32.560Z,32.52
2017-05-30T11:52:01.061Z,6.80
2017-05-30T11:54:29.609Z,9.72
2017-05-30T11:56:58.118Z,8.36
2017-05-30T11:59:26.674Z,8.82
2017-05-30T12:01:55.186Z,11.68
2017-05-30T12:04:23.706Z,9.62
2017-05-30T12:06:52.248Z,7.66
2017-05-30T12:09:20.764Z,8.82
2017-05-30T12:11:49.309Z,8.40
2017-05-30T12:14:17.828Z,8.65
2017-05-30T12:16:46.341Z,8.23
2017-05-30T12:19:14.887Z,10.22
2017-05-30T12:21:43.398Z,9.65
2017-05-30T12:24:12.017Z,8.90
2017-05-30T12:26:40.519Z,10.45
2017-05-30T12:29:09.029Z,11.82
2017-05-30T12:31:37.577Z,12.28
2017-05-30T12:34:06.100Z,11.37
2017-05-30T12:36:34.647Z,10.72
2017-05-30T12:39:03.169Z,8.30
2017-05-30T12:41:31.674Z,9.68
2017-05-30T12:44:00.217Z,11.10
2017-05-30T12:46:28.738Z,10.28
2017-05-30T12:48:57.277Z,8.92
2017-05-30T12:51:25.788Z,9.78
2017-05-30T12:53:54.295Z,10.75
2017-05-30T12:56:22.832Z,9.17
2017-05-30T12:58:51.348Z,12.63
2017-05-30T13:01:19.901Z,11.30
2017-05-30T13:03:48.413Z,10.27
2017-05-30T13:06:16.918Z,9.73
2017-05-30T13:08:45.489Z,11.00
2017-05-30T13:11:14.020Z,15.72
2017-05-30T13:13:42.748Z,15.07
2017-05-30T13:16:11.261Z,12.58
2017-05-30T13:18:39.768Z,13.05
2017-05-30T13:21:08.310Z,13.83
2017-05-30T13:23:36.825Z,13.97
2017-05-30T13:26:05.376Z,15.92
2017-05-30T13:28:33.890Z,16.07
2017-05-30T13:31:02.404Z,16.23
2017-05-30T13:33:30.946Z,19.13
2017-05-30T13:35:59.466Z,14.93
2017-05-30T13:38:28.021Z,14.68
2017-05-30T13:40:56.537Z,16.83
2017-05-30T13:43:25.059Z,13.65
2017-05-30T13:45:53.641Z,17.57
2017-05-30T13:48:22.153Z,18.95
2017-05-30T13:50:50.709Z,19.15
2017-05-30T13:53:19.223Z,19.18
2017-05-30T13:55:47.736Z,17.82
2017-05-30T13:58:16.285Z,18.58
2017-05-30T14:00:44.795Z,18.42
2017-05-30T14:03:13.343Z,17.15
2017-05-30T14:05:41.847Z,19.45
2017-05-30T14:08:10.360Z,21.75
2017-05-30T14:10:38.910Z,22.12
2017-05-30T14:13:07.428Z,19.75
2017-05-30T14:15:35.971Z,17.32
2017-05-30T14:18:04.504Z,14.07
2017-05-30T14:20:33.010Z,10.78
2017-05-30T14:23:01.562Z,11.65
2017-05-30T14:25:30.074Z,14.97
2017-05-30T14:27:58.633Z,13.87
2017-05-30T14:30:27.154Z,14.88
2017-05-30T14:32:55.669Z,14.18
2017-05-30T14:35:24.232Z,12.87
2017-05-30T14:37:52.740Z,12.48
2017-05-30T14:40:21.296Z,14.02
2017-05-30T14:42:49.809Z,12.85
2017-05-30T14:45:18.324Z,14.10
2017-05-30T14:47:46.866Z,14.03
2017-05-30T14:50:15.381Z,15.98
2017-05-30T14:52:43.990Z,13.95
2017-05-30T14:55:12.503Z,13.92
2017-05-30T14:57:41.016Z,14.53
2017-05-30T15:00:09.556Z,14.23
2017-05-30T15:02:38.069Z,13.78
2017-05-30T15:05:06.628Z,12.12
2017-05-30T15:07:35.141Z,12.97
2017-05-30T15:10:03.656Z,14.67
2017-05-30T15:12:32.197Z,12.22
2017-05-30T15:15:00.704Z,13.38
2017-05-30T15:17:29.262Z,11.82
2017-05-30T15:19:57.777Z,16.03
2017-05-30T15:22:26.288Z,12.42
2017-05-30T15:24:54.833Z,12.85
2017-05-30T15:27:23.360Z,13.45
2017-05-30T15:29:51.905Z,12.95
2017-05-30T15:32:20.425Z,13.20
2017-05-30T15:34:48.932Z,13.10
2017-05-30T15:37:17.481Z,16.58
2017-05-30T15:39:45.984Z,13.53
2017-05-30T15:42:14.537Z,11.85
2017-05-30T15:44:43.053Z,12.07
2017-05-30T15:47:11.587Z,15.15
2017-05-30T15:49:40.136Z,13.15
2017-05-30T15:52:08.645Z,13.03
2017-05-30T15:54:37.240Z,13.18
2017-05-30T15:57:05.756Z,12.55
2017-05-30T15:59:34.266Z,10.50
2017-05-30T16:02:02.832Z,10.27
2017-05-30T16:04:31.353Z,11.82
2017-05-30T16:06:59.905Z,12.98
2017-05-30T16:09:28.412Z,11.52
2017-05-30T16:11:56.933Z,11.67
2017-05-30T16:14:25.480Z,11.50
2017-05-30T16:16:53.993Z,12.32
2017-05-30T16:19:22.545Z,12.43
2017-05-30T16:21:51.052Z,13.35
2017-05-30T16:24:19.565Z,12.38
2017-05-30T16:26:48.102Z,11.38
2017-05-30T16:29:16.636Z,13.25
2017-05-30T16:31:45.189Z,13.82
2017-05-30T16:34:13.700Z,16.27
2017-05-30T16:36:42.206Z,15.53
2017-05-30T16:39:10.752Z,12.48
2017-05-30T16:41:39.266Z,13.68
2017-05-30T16:44:07.059Z,14.17
2017-05-30T16:46:35.572Z,14.77
2017-05-30T16:49:04.077Z,13.90
2017-05-30T16:51:32.621Z,13.53
2017-05-30T16:54:01.143Z,15.63
2017-05-30T16:56:29.740Z,11.97
2017-05-30T16:58:58.265Z,14.78
2017-05-30T17:01:26.785Z,12.48
2017-05-30T17:03:55.329Z,13.02
2017-05-30T17:06:23.840Z,16.78
2017-05-30T17:08:52.410Z,13.93
2017-05-30T17:11:20.925Z,13.03
2017-05-30T17:13:49.432Z,13.48
2017-05-30T17:16:17.973Z,13.12
2017-05-30T17:18:46.493Z,12.93
2017-05-30T17:21:15.048Z,12.35
2017-05-30T17:23:43.622Z,13.13
2017-05-30T17:26:12.141Z,14.57
2017-05-30T17:28:40.687Z,14.00
2017-05-30T17:31:09.205Z,12.82
2017-05-30T17:33:37.758Z,14.60
2017-05-30T17:36:06.273Z,13.35
2017-05-30T17:38:34.788Z,13.12
2017-05-30T17:41:03.331Z,11.77
2017-05-30T17:43:31.848Z,19.00
2017-05-30T17:46:00.419Z,16.40
2017-05-30T17:48:28.923Z,15.45
2017-05-30T17:50:57.432Z,12.72
2017-05-30T17:53:25.977Z,16.82
2017-05-30T17:55:54.493Z,14.53
2017-05-30T17:58:23.068Z,14.07
2017-05-30T18:00:51.580Z,13.97
2017-05-30T18:03:20.092Z,16.20
2017-05-30T18:05:48.638Z,14.08
2017-05-30T18:08:17.149Z,13.73
2017-05-30T18:10:45.703Z,14.43
2017-05-30T18:13:14.212Z,12.98
2017-05-30T18:15:42.729Z,12.15
2017-05-30T18:18:11.289Z,12.40
2017-05-30T18:20:39.805Z,11.82
2017-05-30T18:23:08.358Z,11.62
2017-05-30T18:25:36.875Z,13.37
2017-05-30T18:28:05.388Z,13.73
2017-05-30T18:30:33.924Z,14.38
2017-05-30T18:33:10.201Z,15.37
2017-05-30T18:35:38.752Z,15.40
2017-05-30T18:38:07.265Z,14.35
2017-05-30T18:40:35.777Z,14.78
2017-05-30T18:43:05.585Z,13.30
2017-05-30T18:45:34.098Z,14.78
2017-05-30T18:48:02.653Z,13.82
2017-05-30T18:50:31.167Z,14.02
2017-05-30T18:52:59.681Z,13.73
2017-05-30T18:55:28.228Z,13.80
2017-05-30T18:57:56.741Z,14.50
2017-05-30T19:00:25.304Z,16.75
2017-05-30T19:02:53.821Z,17.38
2017-05-30T19:05:22.329Z,18.12
2017-05-30T19:07:51.309Z,17.30
2017-05-30T19:10:19.853Z,18.70
2017-05-30T19:12:48.406Z,17.07
2017-05-30T19:15:16.933Z,19.88
2017-05-30T19:17:45.441Z,16.48
2017-05-30T19:20:13.990Z,17.48
2017-05-30T19:22:42.524Z,16.33
2017-05-30T19:25:11.105Z,19.22
2017-05-30T19:27:39.613Z,18.25
2017-05-30T19:30:08.124Z,19.68
2017-05-30T19:32:36.668Z,17.20
2017-05-30T19:35:05.177Z,17.53
2017-05-30T19:37:34.338Z,18.45
2017-05-30T19:40:02.853Z,19.77
2017-05-30T19:42:31.365Z,18.65
2017-05-30T19:45:00.042Z,17.23
2017-05-30T19:47:28.552Z,19.35
2017-05-30T19:49:57.110Z,18.63
2017-05-30T19:52:25.650Z,20.80
2017-05-30T19:54:54.210Z,24.17
2017-05-30T19:57:24.135Z,21.22
2017-05-30T19:59:52.637Z,20.82
2017-05-30T20:02:21.263Z,22.40
2017-05-30T20:04:49.824Z,23.82
2017-05-30T20:07:18.372Z,20.88
2017-05-30T20:09:46.911Z,22.55
2017-05-30T20:12:15.430Z,21.98
2017-05-30T20:14:44.013Z,25.92
2017-05-30T20:17:12.577Z,25.87
2017-05-30T20:19:41.136Z,22.73
2017-05-30T20:22:09.740Z,27.27
2017-05-30T20:24:38.263Z,25.87
2017-05-30T20:27:06.832Z,27.03
2017-05-30T20:29:35.345Z,25.97
2017-05-30T20:32:03.865Z,26.97
2017-05-30T20:34:32.714Z,24.40
2017-05-30T20:37:01.816Z,28.10
2017-05-30T20:39:30.399Z,29.15
2017-05-30T20:41:59.374Z,26.63
2017-05-30T20:44:27.889Z,30.67
2017-05-30T20:46:56.449Z,28.68
2017-05-30T20:49:24.980Z,29.45
2017-05-30T20:51:53.552Z,25.82
2017-05-30T20:54:22.071Z,25.13
2017-05-30T20:56:50.612Z,23.62
2017-05-30T20:59:19.165Z,21.95
2017-05-30T21:01:47.704Z,21.32
2017-05-30T21:04:16.272Z,19.90
2017-05-30T21:06:44.824Z,17.85
2017-05-30T21:09:13.353Z,16.75
2017-05-30T21:11:41.898Z,16.63
2017-05-30T21:14:10.426Z,17.82
2017-05-30T21:16:38.996Z,16.85
2017-05-30T21:19:07.609Z,14.75
2017-05-30T21:21:36.156Z,16.23
2017-05-30T21:24:04.753Z,17.10
2017-05-30T21:26:33.281Z,16.57
2017-05-30T21:29:01.845Z,16.63
2017-05-30T21:31:30.387Z,16.75
2017-05-30T21:33:58.945Z,14.90
2017-05-30T21:36:27.484Z,14.85
2017-05-30T21:38:55.992Z,13.83
2017-05-30T21:41:24.561Z,15.25
2017-05-30T21:43:53.087Z,13.02
2017-05-30T21:46:21.625Z,15.13
2017-05-30T21:48:50.165Z,13.42
2017-05-30T21:51:18.689Z,13.62
2017-05-30T21:53:47.236Z,15.53
2017-05-30T21:56:15.748Z,13.57
2017-05-30T21:58:44.279Z,15.35
2017-05-30T22:01:12.833Z,14.18
2017-05-30T22:03:41.339Z,14.60
2017-05-30T22:06:09.897Z,14.72
2017-05-30T22:08:38.403Z,14.25
2017-05-30T22:11:06.913Z,13.78
2017-05-30T22:13:35.455Z,13.88
2017-05-30T22:16:03.961Z,15.55
2017-05-30T22:18:32.513Z,14.02
2017-05-30T22:21:01.030Z,12.32
2017-05-30T22:23:28.775Z,14.18
2017-05-30T22:25:57.322Z,13.43
2017-05-30T22:28:25.832Z,14.35
2017-05-30T22:30:54.375Z,12.63
2017-05-30T22:33:22.880Z,12.22
2017-05-30T22:35:51.387Z,10.87
2017-05-30T22:38:19.932Z,10.67
2017-05-30T22:40:48.447Z,10.93
2017-05-30T22:43:17.001Z,10.62
2017-05-30T22:45:45.503Z,9.43
2017-05-30T22:48:14.016Z,10.10
2017-05-30T22:50:42.555Z,9.83
2017-05-30T22:53:11.068Z,10.43
2017-05-30T22:55:39.623Z,9.58
2017-05-30T22:58:08.137Z,12.18
2017-05-30T23:00:36.665Z,10.58
2017-05-30T23:03:05.196Z,9.55
2017-05-30T23:05:33.714Z,10.17
2017-05-30T23:08:02.261Z,10.58
2017-05-30T23:10:30.805Z,9.38
2017-05-30T23:12:59.304Z,8.88
2017-05-30T23:15:27.844Z,9.70
2017-05-30T23:17:56.352Z,9.37
2017-05-30T23:20:24.898Z,9.40
2017-05-30T23:22:53.411Z,9.02
2017-05-30T23:25:21.918Z,8.60
2017-05-30T23:27:50.454Z,9.17
2017-05-30T23:30:18.967Z,8.75
2017-05-30T23:32:47.517Z,8.20
2017-05-30T23:35:16.020Z,7.23
2017-05-30T23:37:44.528Z,7.00
2017-05-30T23:40:13.065Z,7.52
2017-05-30T23:42:41.573Z,7.35
2017-05-30T23:45:10.112Z,7.23
2017-05-30T23:47:38.617Z,6.98
2017-05-30T23:50:07.117Z,6.78
2017-05-30T23:52:35.656Z,8.10
2017-05-30T23:55:04.160Z,7.52
2017-05-30T23:57:32.725Z,6.70
